createdAt,value
2023-02-22T00:00:19.006Z,33.50
2023-02-22T00:02:45.157Z,23.73
2023-02-22T00:05:08.863Z,29.35
2023-02-22T00:07:32.438Z,32.30
2023-02-22T00:10:00.941Z,29.80
2023-02-22T00:12:24.536Z,29.58
2023-02-22T00:14:48.066Z,26.02
2023-02-22T00:17:13.533Z,28.33
2023-02-22T00:19:37.071Z,29.48
2023-02-22T00:22:00.606Z,27.00
2023-02-22T00:24:24.155Z,32.35
2023-02-22T00:26:49.102Z,27.13
2023-02-22T00:29:14.074Z,26.92
2023-02-22T00:31:39.523Z,30.40
2023-02-22T00:34:03.058Z,22.80
2023-02-22T00:36:26.661Z,24.08
2023-02-22T00:38:50.158Z,25.63
2023-02-22T00:41:14.044Z,23.52
2023-02-22T00:43:39.018Z,34.72
2023-02-22T00:46:02.942Z,28.20
2023-02-22T00:48:26.505Z,30.63
2023-02-22T00:50:50.580Z,36.17
2023-02-22T00:53:14.103Z,27.13
2023-02-22T00:55:39.356Z,24.25
2023-02-22T00:58:03.739Z,24.48
2023-02-22T01:00:32.051Z,25.50
2023-02-22T01:02:56.969Z,30.23
2023-02-22T01:05:26.480Z,28.98
2023-02-22T01:07:51.014Z,21.95
2023-02-22T01:10:15.068Z,28.23
2023-02-22T01:12:39.617Z,24.88
2023-02-22T01:15:05.195Z,26.17
2023-02-22T01:17:30.529Z,23.08
2023-02-22T01:19:54.764Z,23.17
2023-02-22T01:22:18.797Z,26.38
2023-02-22T01:24:42.420Z,20.88
2023-02-22T01:27:06.095Z,25.05
2023-02-22T01:29:29.923Z,27.90
2023-02-22T01:31:56.156Z,28.13
2023-02-22T01:34:22.166Z,31.63
2023-02-22T01:36:45.747Z,22.83
2023-02-22T01:39:10.336Z,28.85
2023-02-22T01:41:33.925Z,32.90
2023-02-22T01:43:57.515Z,27.15
2023-02-22T01:46:24.970Z,25.58
2023-02-22T01:48:54.822Z,28.45
2023-02-22T01:51:26.548Z,31.05
2023-02-22T01:53:54.640Z,27.63
2023-02-22T01:56:19.906Z,29.55
2023-02-22T01:58:48.371Z,24.40
2023-02-22T02:01:13.033Z,25.70
2023-02-22T02:03:39.755Z,22.85
2023-02-22T02:06:07.559Z,22.65
2023-02-22T02:08:39.613Z,27.50
2023-02-22T02:11:05.223Z,27.80
2023-02-22T02:13:29.850Z,31.77
2023-02-22T02:15:56.423Z,27.90
2023-02-22T02:18:20.054Z,26.65
2023-02-22T02:20:55.164Z,29.90
2023-02-22T02:23:59.889Z,27.52
2023-02-22T02:27:15.567Z,27.73
2023-02-22T02:30:34.116Z,25.05
2023-02-22T02:33:06.372Z,29.90
2023-02-22T02:35:41.241Z,26.80
2023-02-22T02:38:13.384Z,28.25
2023-02-22T02:40:47.377Z,24.10
2023-02-22T02:43:19.141Z,25.63
2023-02-22T02:45:49.031Z,30.90
2023-02-22T02:48:17.359Z,31.02
2023-02-22T02:50:46.528Z,24.02
2023-02-22T02:53:11.409Z,28.85
2023-02-22T02:55:37.212Z,29.55
2023-02-22T02:58:00.839Z,29.10
2023-02-22T03:00:30.236Z,33.20
2023-02-22T03:03:12.228Z,27.40
2023-02-22T03:06:00.025Z,26.35
2023-02-22T03:08:34.021Z,20.92
2023-02-22T03:11:14.948Z,27.42
2023-02-22T03:13:52.137Z,29.00
2023-02-22T03:16:23.772Z,28.45
2023-02-22T03:18:56.040Z,37.35
2023-02-22T03:21:33.694Z,28.00
2023-02-22T03:24:08.496Z,33.90
2023-02-22T03:26:39.317Z,28.55
2023-02-22T03:29:05.239Z,29.70
2023-02-22T03:31:38.336Z,28.30
2023-02-22T03:34:07.942Z,30.90
2023-02-22T03:36:39.051Z,26.33
2023-02-22T03:39:04.793Z,32.13
2023-02-22T03:41:31.394Z,24.52
2023-02-22T03:44:00.644Z,25.60
2023-02-22T03:46:25.065Z,27.83
2023-02-22T03:48:55.253Z,33.10
2023-02-22T03:51:19.941Z,32.90
2023-02-22T03:53:49.262Z,25.92
2023-02-22T03:56:20.353Z,34.58
2023-02-22T03:58:46.054Z,24.30
2023-02-22T04:01:09.641Z,28.38
2023-02-22T04:03:33.518Z,24.10
2023-02-22T04:05:58.731Z,27.88
2023-02-22T04:08:22.496Z,27.00
2023-02-22T04:10:47.517Z,30.25
2023-02-22T04:13:14.722Z,24.25
2023-02-22T04:15:42.331Z,23.10
2023-02-22T04:18:07.399Z,31.23
2023-02-22T04:20:34.889Z,32.20
2023-02-22T04:23:06.571Z,27.40
2023-02-22T04:25:30.189Z,22.10
2023-02-22T04:27:55.637Z,31.07
2023-02-22T04:30:31.221Z,32.22
2023-02-22T04:32:54.950Z,26.77
2023-02-22T04:35:20.379Z,34.57
2023-02-22T04:37:44.019Z,28.27
2023-02-22T04:40:10.674Z,32.47
2023-02-22T04:42:34.438Z,25.95
2023-02-22T04:45:00.307Z,29.87
2023-02-22T04:47:23.956Z,32.40
2023-02-22T04:49:47.469Z,33.80
2023-02-22T04:52:11.186Z,29.13
2023-02-22T04:54:35.857Z,28.42
2023-02-22T04:56:59.599Z,29.10
2023-02-22T04:59:23.293Z,27.77
2023-02-22T05:01:54.072Z,33.08
2023-02-22T05:04:17.790Z,28.20
2023-02-22T05:06:41.310Z,28.53
2023-02-22T05:09:05.178Z,31.60
2023-02-22T05:11:29.024Z,35.23
2023-02-22T05:13:52.645Z,28.37
2023-02-22T05:16:16.846Z,29.17
2023-02-22T05:18:41.833Z,37.27
2023-02-22T05:21:06.775Z,22.50
2023-02-22T05:23:30.341Z,29.70
2023-02-22T05:25:53.906Z,32.07
2023-02-22T05:28:18.339Z,30.38
2023-02-22T05:30:42.177Z,29.73
2023-02-22T05:33:06.020Z,24.48
2023-02-22T05:35:31.118Z,32.00
2023-02-22T05:37:54.704Z,29.13
2023-02-22T05:40:20.252Z,25.13
2023-02-22T05:42:43.812Z,24.88
2023-02-22T05:45:09.249Z,34.43
2023-02-22T05:47:32.825Z,25.10
2023-02-22T05:49:56.412Z,31.13
2023-02-22T05:52:21.349Z,34.63
2023-02-22T05:54:45.343Z,29.50
2023-02-22T05:57:09.177Z,26.40
2023-02-22T05:59:32.733Z,33.37
2023-02-22T06:01:56.373Z,27.83
2023-02-22T06:04:20.186Z,32.00
2023-02-22T06:06:43.840Z,24.27
2023-02-22T06:09:08.876Z,21.88
2023-02-22T06:11:32.499Z,25.40
2023-02-22T06:13:56.043Z,25.55
2023-02-22T06:16:21.084Z,32.88
2023-02-22T06:18:44.742Z,39.83
2023-02-22T06:21:10.668Z,30.33
2023-02-22T06:23:34.168Z,35.33
2023-02-22T06:25:59.152Z,26.60
2023-02-22T06:28:23.734Z,26.73
2023-02-22T06:30:47.442Z,25.63
2023-02-22T06:33:11.950Z,35.42
2023-02-22T06:35:35.618Z,30.60
2023-02-22T06:37:59.114Z,38.97
2023-02-22T06:40:22.893Z,34.50
2023-02-22T06:42:50.012Z,36.83
2023-02-22T06:45:13.585Z,31.50
2023-02-22T06:47:41.468Z,31.67
2023-02-22T06:50:05.037Z,33.40
2023-02-22T06:52:28.785Z,34.90
2023-02-22T06:54:52.899Z,28.08
2023-02-22T06:57:16.606Z,30.13
2023-02-22T06:59:41.625Z,28.52
2023-02-22T07:02:05.157Z,38.10
2023-02-22T07:04:28.779Z,36.75
2023-02-22T07:06:52.537Z,30.88
2023-02-22T07:09:17.635Z,27.40
2023-02-22T07:11:41.313Z,38.88
2023-02-22T07:14:04.881Z,33.90
2023-02-22T07:16:29.865Z,27.55
2023-02-22T07:18:53.465Z,26.75
2023-02-22T07:21:18.856Z,26.63
2023-02-22T07:23:42.573Z,32.63
2023-02-22T07:26:06.910Z,28.08
2023-02-22T07:28:30.707Z,34.42
2023-02-22T07:30:54.304Z,36.63
2023-02-22T07:33:19.303Z,28.52
2023-02-22T07:35:47.677Z,36.22
2023-02-22T07:38:11.476Z,38.13
2023-02-22T07:40:35.691Z,37.72
2023-02-22T07:43:01.668Z,33.67
2023-02-22T07:45:27.257Z,36.00
2023-02-22T07:47:50.854Z,34.42
2023-02-22T07:50:16.778Z,33.40
2023-02-22T07:52:40.364Z,38.47
2023-02-22T07:55:03.891Z,33.15
2023-02-22T07:57:27.462Z,32.38
2023-02-22T07:59:51.418Z,31.85
2023-02-22T08:02:18.874Z,35.55
2023-02-22T08:04:42.408Z,43.10
2023-02-22T08:07:07.411Z,32.83
2023-02-22T08:09:30.922Z,35.95
2023-02-22T08:11:54.492Z,34.25
2023-02-22T08:14:18.433Z,40.58
2023-02-22T08:16:42.033Z,37.05
2023-02-22T08:19:05.561Z,31.33
2023-02-22T08:21:30.395Z,29.52
2023-02-22T08:23:56.002Z,31.42
2023-02-22T08:26:20.828Z,36.63
2023-02-22T08:28:44.354Z,36.60
2023-02-22T08:31:08.957Z,31.02
2023-02-22T08:33:32.542Z,37.90
2023-02-22T08:35:56.509Z,35.67
2023-02-22T08:38:23.788Z,30.65
2023-02-22T08:40:50.215Z,24.63
2023-02-22T08:43:14.558Z,44.60
2023-02-22T08:45:38.220Z,40.63
2023-02-22T08:48:01.741Z,43.00
2023-02-22T08:50:27.678Z,34.50
2023-02-22T08:52:52.316Z,51.03
2023-02-22T08:55:16.201Z,43.38
2023-02-22T08:57:41.107Z,40.53
2023-02-22T09:00:06.268Z,41.80
2023-02-22T09:02:29.814Z,34.33
2023-02-22T09:04:53.411Z,32.65
2023-02-22T09:07:18.194Z,33.97
2023-02-22T09:09:43.541Z,35.22
2023-02-22T09:12:07.927Z,36.17
2023-02-22T09:14:32.905Z,35.70
2023-02-22T09:16:56.557Z,29.40
2023-02-22T09:19:20.311Z,26.45
2023-02-22T09:21:43.818Z,27.35
2023-02-22T09:24:09.371Z,27.92
2023-02-22T09:26:33.277Z,23.83
2023-02-22T09:28:56.877Z,29.00
2023-02-22T09:31:22.418Z,30.60
2023-02-22T09:33:47.514Z,26.55
2023-02-22T09:36:11.302Z,26.55
2023-02-22T09:38:35.060Z,24.08
2023-02-22T09:41:12.346Z,23.17
2023-02-22T09:43:43.234Z,32.85
2023-02-22T09:46:22.917Z,24.17
2023-02-22T09:49:03.715Z,23.55
2023-02-22T09:51:35.364Z,20.63
2023-02-22T09:54:03.808Z,22.23
2023-02-22T09:56:30.169Z,26.00
2023-02-22T09:59:00.739Z,21.88
2023-02-22T10:01:32.636Z,24.20
2023-02-22T10:04:07.153Z,24.40
2023-02-22T10:06:33.575Z,22.05
2023-02-22T10:09:06.898Z,24.85
2023-02-22T10:11:48.724Z,23.73
2023-02-22T10:14:36.150Z,18.95
2023-02-22T10:17:12.190Z,24.67
2023-02-22T10:19:46.217Z,25.67
2023-02-22T10:22:46.066Z,25.15
2023-02-22T10:25:17.933Z,26.58
2023-02-22T10:27:47.920Z,22.65
2023-02-22T10:30:25.357Z,20.45
2023-02-22T10:32:57.142Z,16.67
2023-02-22T10:35:25.761Z,15.82
2023-02-22T10:37:53.286Z,18.52
2023-02-22T10:40:23.027Z,19.50
2023-02-22T10:42:47.357Z,25.58
2023-02-22T10:45:26.806Z,17.00
2023-02-22T10:47:52.710Z,19.75
2023-02-22T10:50:17.350Z,18.48
2023-02-22T10:52:40.918Z,21.70
2023-02-22T10:55:15.367Z,29.45
2023-02-22T10:57:39.704Z,20.35
2023-02-22T11:00:19.837Z,21.73
2023-02-22T11:02:54.974Z,22.20
2023-02-22T11:05:30.997Z,24.35
2023-02-22T11:08:15.944Z,20.77
2023-02-22T11:10:39.575Z,29.42
2023-02-22T11:13:19.178Z,27.60
2023-02-22T11:15:44.198Z,17.80
2023-02-22T11:18:26.667Z,22.48
2023-02-22T11:20:50.448Z,26.33
2023-02-22T11:23:14.599Z,18.95
2023-02-22T11:25:42.346Z,23.58
2023-02-22T11:28:14.930Z,20.90
2023-02-22T11:30:39.598Z,21.92
2023-02-22T11:33:23.493Z,27.88
2023-02-22T11:35:53.298Z,17.80
2023-02-22T11:38:22.778Z,24.63
2023-02-22T11:40:46.782Z,27.77
2023-02-22T11:43:17.562Z,17.98
2023-02-22T11:45:49.827Z,22.70
2023-02-22T11:48:23.357Z,21.67
2023-02-22T11:51:18.667Z,28.27
2023-02-22T11:53:59.057Z,18.67
2023-02-22T11:56:37.805Z,27.90
2023-02-22T11:59:13.158Z,32.15
2023-02-22T12:01:46.498Z,20.67
2023-02-22T12:04:55.805Z,24.63
2023-02-22T12:07:44.643Z,28.48
2023-02-22T12:10:22.853Z,22.88
2023-02-22T12:13:06.733Z,24.85
2023-02-22T12:15:38.097Z,16.13
2023-02-22T12:18:10.773Z,23.23
2023-02-22T12:20:40.814Z,27.27
2023-02-22T12:23:16.377Z,30.38
2023-02-22T12:25:48.458Z,20.67
2023-02-22T12:28:25.151Z,19.50
2023-02-22T12:30:55.567Z,26.30
2023-02-22T12:33:27.249Z,21.98
2023-02-22T12:35:56.662Z,24.80
2023-02-22T12:38:26.205Z,18.65
2023-02-22T12:40:58.175Z,24.55
2023-02-22T12:43:28.125Z,24.60
2023-02-22T12:46:00.804Z,20.65
2023-02-22T12:48:36.392Z,31.50
2023-02-22T12:51:17.286Z,21.23
2023-02-22T12:53:46.603Z,23.67
2023-02-22T12:56:22.476Z,22.92
2023-02-22T12:58:54.365Z,20.00
2023-02-22T13:01:21.976Z,23.52
2023-02-22T13:03:46.099Z,18.88
2023-02-22T13:06:38.120Z,21.23
2023-02-22T13:09:26.655Z,22.30
2023-02-22T13:11:59.494Z,22.92
2023-02-22T13:14:46.600Z,18.05
2023-02-22T13:17:21.136Z,22.73
2023-02-22T13:19:50.756Z,16.30
2023-02-22T13:22:25.326Z,21.45
2023-02-22T13:25:04.676Z,20.55
2023-02-22T13:27:35.456Z,20.52
2023-02-22T13:30:04.012Z,19.88
2023-02-22T13:33:03.108Z,17.92
2023-02-22T13:35:48.932Z,28.40
2023-02-22T13:38:55.087Z,20.20
2023-02-22T13:41:44.975Z,17.63
2023-02-22T13:44:52.542Z,18.48
2023-02-22T13:48:12.350Z,22.15
2023-02-22T13:51:15.273Z,21.58
2023-02-22T13:53:50.980Z,21.67
2023-02-22T13:56:16.593Z,17.17
2023-02-22T13:58:52.863Z,17.15
2023-02-22T14:01:43.262Z,14.02
2023-02-22T14:04:44.157Z,21.55
2023-02-22T14:07:56.024Z,20.92
2023-02-22T14:10:50.517Z,17.08
2023-02-22T14:13:16.092Z,21.80
2023-02-22T14:16:21.111Z,14.73
2023-02-22T14:18:47.013Z,24.55
2023-02-22T14:21:12.551Z,26.92
2023-02-22T14:23:40.191Z,14.88
2023-02-22T14:26:18.427Z,18.98
2023-02-22T14:28:52.682Z,20.25
2023-02-22T14:31:35.096Z,20.35
2023-02-22T14:34:05.528Z,19.05
2023-02-22T14:36:35.408Z,10.65
2023-02-22T14:39:12.164Z,23.92
2023-02-22T14:41:39.135Z,20.92
2023-02-22T14:44:05.725Z,18.75
2023-02-22T14:46:34.553Z,18.27
2023-02-22T14:49:05.348Z,17.55
2023-02-22T14:51:34.848Z,20.45
2023-02-22T14:54:07.696Z,22.42
2023-02-22T14:56:41.203Z,17.35
2023-02-22T14:59:19.015Z,14.05
2023-02-22T15:01:58.395Z,23.92
2023-02-22T15:04:28.833Z,16.40
2023-02-22T15:06:53.834Z,19.95
2023-02-22T15:09:25.052Z,19.17
2023-02-22T15:11:50.240Z,24.17
2023-02-22T15:14:26.204Z,23.33
2023-02-22T15:16:56.075Z,21.20
2023-02-22T15:19:26.297Z,15.45
2023-02-22T15:21:52.200Z,24.40
2023-02-22T15:24:25.664Z,22.95
2023-02-22T15:27:01.112Z,17.30
2023-02-22T15:29:30.680Z,16.83
2023-02-22T15:31:56.791Z,15.77
2023-02-22T15:34:27.059Z,17.85
2023-02-22T15:36:54.583Z,22.13
2023-02-22T15:39:25.556Z,14.10
2023-02-22T15:41:49.210Z,14.80
2023-02-22T15:44:27.990Z,15.15
2023-02-22T15:46:54.457Z,24.02
2023-02-22T15:49:26.009Z,16.05
2023-02-22T15:52:02.239Z,16.52
2023-02-22T15:54:27.962Z,23.35
2023-02-22T15:56:56.595Z,20.08
2023-02-22T15:59:22.625Z,18.33
2023-02-22T16:01:49.012Z,21.63
2023-02-22T16:04:20.062Z,17.63
2023-02-22T16:06:45.099Z,22.48
2023-02-22T16:09:12.060Z,19.23
2023-02-22T16:11:40.497Z,18.77
2023-02-22T16:14:07.565Z,23.30
2023-02-22T16:16:33.830Z,18.45
2023-02-22T16:19:27.664Z,17.98
2023-02-22T16:21:58.462Z,14.98
2023-02-22T16:24:28.737Z,21.65
2023-02-22T16:27:17.587Z,18.88
2023-02-22T16:29:41.331Z,20.00
2023-02-22T16:32:05.432Z,26.45
2023-02-22T16:34:29.136Z,20.05
2023-02-22T16:36:55.563Z,17.90
2023-02-22T16:39:27.103Z,17.15
2023-02-22T16:41:52.780Z,19.90
2023-02-22T16:44:17.237Z,17.95
2023-02-22T16:46:41.952Z,21.98
2023-02-22T16:49:05.649Z,19.95
2023-02-22T16:51:30.121Z,23.67
2023-02-22T16:53:56.968Z,21.73
2023-02-22T16:56:24.843Z,20.92
2023-02-22T16:58:51.072Z,28.42
2023-02-22T17:01:14.652Z,21.60
2023-02-22T17:03:38.295Z,19.65
2023-02-22T17:06:01.870Z,24.15
2023-02-22T17:08:25.637Z,25.45
2023-02-22T17:10:51.625Z,19.38
2023-02-22T17:13:23.049Z,19.42
2023-02-22T17:15:47.867Z,16.10
2023-02-22T17:18:16.338Z,24.88
2023-02-22T17:20:39.909Z,19.92
2023-02-22T17:23:06.502Z,23.02
2023-02-22T17:25:34.650Z,24.13
2023-02-22T17:27:59.682Z,24.33
2023-02-22T17:30:24.119Z,19.30
2023-02-22T17:32:48.672Z,18.33
2023-02-22T17:35:13.005Z,18.05
2023-02-22T17:37:37.454Z,28.20
2023-02-22T17:40:01.273Z,18.67
2023-02-22T17:42:24.948Z,19.48
2023-02-22T17:44:50.001Z,22.13
2023-02-22T17:47:13.579Z,22.10
2023-02-22T17:49:37.185Z,17.13
2023-02-22T17:52:02.762Z,20.58
2023-02-22T17:54:27.070Z,20.42
2023-02-22T17:56:50.706Z,19.60
2023-02-22T17:59:14.379Z,17.70
2023-02-22T18:01:39.660Z,18.75
2023-02-22T18:04:05.160Z,26.77
2023-02-22T18:06:32.722Z,17.52
2023-02-22T18:08:57.488Z,21.65
2023-02-22T18:11:21.237Z,18.90
2023-02-22T18:13:44.842Z,19.10
2023-02-22T18:16:10.133Z,16.10
2023-02-22T18:18:35.505Z,22.55
2023-02-22T18:21:00.405Z,14.95
2023-02-22T18:23:27.938Z,20.30
2023-02-22T18:26:09.282Z,20.75
2023-02-22T18:28:34.158Z,18.58
2023-02-22T18:30:59.106Z,18.58
2023-02-22T18:33:22.822Z,18.42
2023-02-22T18:35:52.270Z,19.08
2023-02-22T18:38:22.852Z,20.83
2023-02-22T18:40:47.970Z,15.43
2023-02-22T18:43:11.541Z,19.13
2023-02-22T18:45:36.078Z,14.88
2023-02-22T18:47:59.591Z,19.73
2023-02-22T18:50:23.166Z,17.77
2023-02-22T18:52:48.073Z,18.75
2023-02-22T18:55:13.459Z,20.35
2023-02-22T18:57:37.126Z,20.05
2023-02-22T19:00:00.717Z,20.10
2023-02-22T19:02:25.518Z,16.98
2023-02-22T19:04:49.406Z,18.80
2023-02-22T19:07:17.729Z,16.98
2023-02-22T19:09:42.681Z,17.10
2023-02-22T19:12:07.315Z,21.55
2023-02-22T19:14:30.884Z,17.52
2023-02-22T19:16:56.858Z,19.67
2023-02-22T19:19:20.982Z,15.52
2023-02-22T19:21:44.499Z,22.25
2023-02-22T19:24:08.956Z,40.47
2023-02-22T19:26:33.924Z,30.02
2023-02-22T19:28:59.818Z,37.45
2023-02-22T19:31:28.214Z,35.60
2023-02-22T19:33:52.350Z,31.08
2023-02-22T19:36:16.890Z,24.63
2023-02-22T19:38:41.235Z,38.58
2023-02-22T19:41:10.375Z,30.08
2023-02-22T19:43:35.558Z,27.38
2023-02-22T19:45:59.138Z,27.30
2023-02-22T19:48:22.866Z,30.60
2023-02-22T19:50:49.509Z,25.17
2023-02-22T19:53:14.054Z,23.40
2023-02-22T19:55:38.357Z,20.77
2023-02-22T19:58:01.985Z,31.02
2023-02-22T20:00:27.811Z,24.85
2023-02-22T20:02:51.828Z,23.42
2023-02-22T20:05:16.487Z,27.70
2023-02-22T20:07:40.215Z,26.33
2023-02-22T20:10:03.946Z,23.35
2023-02-22T20:12:27.709Z,24.17
2023-02-22T20:14:51.248Z,24.85
2023-02-22T20:17:16.212Z,25.65
2023-02-22T20:19:40.636Z,19.02
2023-02-22T20:22:04.539Z,18.20
2023-02-22T20:24:28.502Z,25.48
2023-02-22T20:26:55.776Z,20.90
2023-02-22T20:29:20.881Z,20.80
2023-02-22T20:31:49.328Z,20.92
2023-02-22T20:34:15.563Z,22.05
2023-02-22T20:36:42.429Z,21.63
2023-02-22T20:39:13.189Z,25.48
2023-02-22T20:41:37.563Z,23.15
2023-02-22T20:44:02.940Z,20.35
2023-02-22T20:46:28.301Z,22.65
2023-02-22T20:48:56.419Z,18.92
2023-02-22T20:51:21.359Z,21.98
2023-02-22T20:53:45.098Z,18.35
2023-02-22T20:56:11.482Z,24.85
2023-02-22T20:58:35.185Z,21.15
2023-02-22T21:01:05.946Z,21.65
2023-02-22T21:03:30.591Z,24.63
2023-02-22T21:05:54.170Z,22.25
2023-02-22T21:08:19.163Z,27.60
2023-02-22T21:10:43.846Z,23.08
2023-02-22T21:13:11.249Z,24.58
2023-02-22T21:15:36.238Z,26.25
2023-02-22T21:17:59.809Z,27.75
2023-02-22T21:20:23.342Z,22.02
2023-02-22T21:22:49.903Z,24.88
2023-02-22T21:25:16.646Z,27.75
2023-02-22T21:27:42.074Z,24.27
2023-02-22T21:30:06.978Z,29.90
2023-02-22T21:32:30.578Z,24.27
2023-02-22T21:34:54.920Z,23.38
2023-02-22T21:37:18.474Z,24.50
2023-02-22T21:39:47.522Z,28.50
2023-02-22T21:42:13.831Z,24.48
2023-02-22T21:44:37.545Z,29.10
2023-02-22T21:47:01.100Z,26.75
2023-02-22T21:49:25.088Z,27.70
2023-02-22T21:51:48.705Z,35.55
2023-02-22T21:54:13.815Z,23.80
2023-02-22T21:56:39.976Z,30.17
2023-02-22T21:59:07.542Z,36.13
2023-02-22T22:01:33.842Z,25.15
2023-02-22T22:04:00.093Z,28.70
2023-02-22T22:06:23.873Z,28.98
2023-02-22T22:08:47.450Z,29.52
2023-02-22T22:11:12.783Z,26.63
2023-02-22T22:13:37.952Z,30.05
2023-02-22T22:16:08.457Z,25.02
2023-02-22T22:18:32.616Z,28.67
2023-02-22T22:20:56.458Z,29.70
2023-02-22T22:23:19.978Z,31.58
2023-02-22T22:25:43.787Z,29.73
2023-02-22T22:28:08.669Z,31.63
2023-02-22T22:30:34.235Z,37.67
2023-02-22T22:32:59.255Z,32.83
2023-02-22T22:35:22.809Z,38.67
2023-02-22T22:37:51.103Z,37.22
2023-02-22T22:40:15.952Z,37.03
2023-02-22T22:42:39.500Z,27.73
2023-02-22T22:45:03.245Z,37.65
2023-02-22T22:47:26.818Z,31.33
2023-02-22T22:49:52.951Z,30.93
2023-02-22T22:52:19.028Z,40.10
2023-02-22T22:54:43.884Z,29.98
2023-02-22T22:57:07.528Z,32.35
2023-02-22T22:59:31.863Z,35.72
2023-02-22T23:01:56.704Z,36.17
2023-02-22T23:04:21.519Z,35.80
2023-02-22T23:06:49.927Z,28.47
2023-02-22T23:09:18.828Z,32.70
2023-02-22T23:11:45.911Z,31.70
2023-02-22T23:14:09.922Z,38.20
2023-02-22T23:16:33.954Z,36.10
2023-02-22T23:18:58.698Z,36.47
2023-02-22T23:21:24.423Z,38.73
2023-02-22T23:23:51.762Z,36.90
2023-02-22T23:26:18.095Z,41.13
2023-02-22T23:28:43.181Z,35.45
2023-02-22T23:31:09.269Z,45.15
2023-02-22T23:33:32.856Z,39.17
2023-02-22T23:35:56.442Z,39.43
2023-02-22T23:38:19.963Z,41.50
2023-02-22T23:40:46.026Z,40.30
2023-02-22T23:43:11.775Z,40.47
2023-02-22T23:45:38.679Z,40.38
2023-02-22T23:48:02.339Z,37.00
2023-02-22T23:50:29.012Z,40.47
2023-02-22T23:52:56.968Z,33.97
2023-02-22T23:55:21.119Z,48.13
2023-02-22T23:57:46.024Z,41.30
